Terminal Aerodrome Forecast
Issued by NWS Corpus Christi, TX

Home | Current Version | Previous Version | Text Only | Print | Product List | Glossary On
Versions: 1 2 3 4 5 6 7 8 9 10 11 12 13 14 15 16 17 18 19 20 21 22 23
921
FTUS44 KCRP 291724
TAFCRP
TAF
KCRP 291724Z 2918/3018 15020G29KT P6SM BKN030
     FM300200 15016KT P6SM BKN015
     FM300800 16012KT 5SM BR OVC009
     FM301500 10007KT P6SM BKN015=

USA.gov is the U.S. government's official web portal to all federal, state and local government web resources and services.